sensor_id;sensor_type;location;lat;lon;timestamp;P1;durP1;ratioP1;P2;durP2;ratioP2
84311;SDS011;74490;52.148;7.940;2024-03-08T00:01:24;5.35;;;3.80;;
84311;SDS011;74490;52.148;7.940;2024-03-08T00:03:50;6.90;;;3.55;;
84311;SDS011;74490;52.148;7.940;2024-03-08T00:06:16;5.70;;;3.65;;
84311;SDS011;74490;52.148;7.940;2024-03-08T00:08:41;5.05;;;3.60;;
84311;SDS011;74490;52.148;7.940;2024-03-08T00:11:06;4.70;;;3.40;;
84311;SDS011;74490;52.148;7.940;2024-03-08T00:13:33;5.15;;;3.50;;
84311;SDS011;74490;52.148;7.940;2024-03-08T00:15:59;6.22;;;3.95;;
84311;SDS011;74490;52.148;7.940;2024-03-08T00:18:24;5.07;;;3.70;;
84311;SDS011;74490;52.148;7.940;2024-03-08T00:20:49;4.60;;;3.20;;
84311;SDS011;74490;52.148;7.940;2024-03-08T00:23:15;6.15;;;4.43;;
84311;SDS011;74490;52.148;7.940;2024-03-08T00:25:41;5.32;;;3.45;;
84311;SDS011;74490;52.148;7.940;2024-03-08T00:28:06;5.35;;;3.22;;
84311;SDS011;74490;52.148;7.940;2024-03-08T00:30:31;6.35;;;3.30;;
84311;SDS011;74490;52.148;7.940;2024-03-08T00:32:57;4.80;;;3.22;;
84311;SDS011;74490;52.148;7.940;2024-03-08T00:35:22;4.38;;;3.28;;
84311;SDS011;74490;52.148;7.940;2024-03-08T00:37:48;6.68;;;3.50;;
84311;SDS011;74490;52.148;7.940;2024-03-08T00:40:13;4.30;;;3.30;;
84311;SDS011;74490;52.148;7.940;2024-03-08T00:42:38;5.03;;;3.30;;
84311;SDS011;74490;52.148;7.940;2024-03-08T00:45:06;5.43;;;3.80;;
84311;SDS011;74490;52.148;7.940;2024-03-08T00:47:31;4.88;;;3.33;;
84311;SDS011;74490;52.148;7.940;2024-03-08T00:49:57;5.15;;;3.75;;
84311;SDS011;74490;52.148;7.940;2024-03-08T00:52:22;4.72;;;2.97;;
84311;SDS011;74490;52.148;7.940;2024-03-08T00:54:49;4.75;;;3.47;;
84311;SDS011;74490;52.148;7.940;2024-03-08T00:57:14;5.00;;;3.15;;
84311;SDS011;74490;52.148;7.940;2024-03-08T00:59:40;6.28;;;3.50;;
84311;SDS011;74490;52.148;7.940;2024-03-08T01:02:05;5.10;;;3.33;;
84311;SDS011;74490;52.148;7.940;2024-03-08T01:04:31;4.53;;;3.10;;
84311;SDS011;74490;52.148;7.940;2024-03-08T01:06:56;4.85;;;3.35;;
84311;SDS011;74490;52.148;7.940;2024-03-08T01:09:22;6.13;;;3.25;;
84311;SDS011;74490;52.148;7.940;2024-03-08T01:11:48;4.63;;;2.90;;
84311;SDS011;74490;52.148;7.940;2024-03-08T01:14:13;4.95;;;3.47;;
84311;SDS011;74490;52.148;7.940;2024-03-08T01:16:38;5.40;;;3.28;;
84311;SDS011;74490;52.148;7.940;2024-03-08T01:19:03;4.75;;;3.00;;
84311;SDS011;74490;52.148;7.940;2024-03-08T01:21:28;5.95;;;3.20;;
84311;SDS011;74490;52.148;7.940;2024-03-08T01:23:54;5.13;;;3.40;;
84311;SDS011;74490;52.148;7.940;2024-03-08T01:26:19;4.53;;;2.92;;
84311;SDS011;74490;52.148;7.940;2024-03-08T01:28:44;6.35;;;3.40;;
84311;SDS011;74490;52.148;7.940;2024-03-08T01:31:10;4.55;;;3.00;;
84311;SDS011;74490;52.148;7.940;2024-03-08T01:33:35;5.30;;;3.33;;
84311;SDS011;74490;52.148;7.940;2024-03-08T01:36:00;4.95;;;3.20;;
84311;SDS011;74490;52.148;7.940;2024-03-08T01:38:25;3.38;;;2.88;;
84311;SDS011;74490;52.148;7.940;2024-03-08T01:40:51;4.70;;;3.10;;
84311;SDS011;74490;52.148;7.940;2024-03-08T01:43:17;3.97;;;2.88;;
84311;SDS011;74490;52.148;7.940;2024-03-08T01:45:46;4.38;;;2.90;;
84311;SDS011;74490;52.148;7.940;2024-03-08T01:48:12;4.78;;;3.20;;
84311;SDS011;74490;52.148;7.940;2024-03-08T01:50:38;4.65;;;2.95;;
84311;SDS011;74490;52.148;7.940;2024-03-08T01:53:04;5.38;;;3.45;;
84311;SDS011;74490;52.148;7.940;2024-03-08T01:55:30;4.30;;;3.17;;
84311;SDS011;74490;52.148;7.940;2024-03-08T01:57:55;3.17;;;2.72;;
84311;SDS011;74490;52.148;7.940;2024-03-08T02:00:21;4.63;;;3.30;;
84311;SDS011;74490;52.148;7.940;2024-03-08T02:02:46;3.75;;;2.97;;
84311;SDS011;74490;52.148;7.940;2024-03-08T02:05:12;4.15;;;3.20;;
84311;SDS011;74490;52.148;7.940;2024-03-08T02:07:38;5.03;;;3.15;;
84311;SDS011;74490;52.148;7.940;2024-03-08T02:10:08;4.53;;;2.97;;
84311;SDS011;74490;52.148;7.940;2024-03-08T02:12:34;3.83;;;2.90;;
84311;SDS011;74490;52.148;7.940;2024-03-08T02:14:59;3.90;;;3.08;;
84311;SDS011;74490;52.148;7.940;2024-03-08T02:17:25;3.88;;;2.70;;
84311;SDS011;74490;52.148;7.940;2024-03-08T02:19:50;4.13;;;3.00;;
84311;SDS011;74490;52.148;7.940;2024-03-08T02:22:15;4.35;;;2.72;;
84311;SDS011;74490;52.148;7.940;2024-03-08T02:24:41;4.22;;;3.20;;
84311;SDS011;74490;52.148;7.940;2024-03-08T02:27:06;4.53;;;2.80;;
84311;SDS011;74490;52.148;7.940;2024-03-08T02:29:31;4.22;;;3.00;;
84311;SDS011;74490;52.148;7.940;2024-03-08T02:31:57;4.22;;;3.05;;
84311;SDS011;74490;52.148;7.940;2024-03-08T02:34:22;4.05;;;2.80;;
84311;SDS011;74490;52.148;7.940;2024-03-08T02:36:48;4.22;;;2.97;;
84311;SDS011;74490;52.148;7.940;2024-03-08T02:39:13;5.15;;;2.88;;
84311;SDS011;74490;52.148;7.940;2024-03-08T02:41:38;4.22;;;2.97;;
84311;SDS011;74490;52.148;7.940;2024-03-08T02:44:04;5.00;;;3.10;;
84311;SDS011;74490;52.148;7.940;2024-03-08T02:46:29;3.88;;;2.95;;
84311;SDS011;74490;52.148;7.940;2024-03-08T02:48:55;4.82;;;3.10;;
84311;SDS011;74490;52.148;7.940;2024-03-08T02:51:20;3.55;;;2.63;;
84311;SDS011;74490;52.148;7.940;2024-03-08T02:53:45;4.07;;;3.00;;
84311;SDS011;74490;52.148;7.940;2024-03-08T02:56:13;4.50;;;2.63;;
84311;SDS011;74490;52.148;7.940;2024-03-08T02:58:41;3.13;;;2.63;;
84311;SDS011;74490;52.148;7.940;2024-03-08T03:01:07;4.43;;;3.30;;
84311;SDS011;74490;52.148;7.940;2024-03-08T03:03:33;3.58;;;3.00;;
84311;SDS011;74490;52.148;7.940;2024-03-08T03:05:58;3.28;;;2.78;;
84311;SDS011;74490;52.148;7.940;2024-03-08T03:08:23;4.00;;;2.78;;
84311;SDS011;74490;52.148;7.940;2024-03-08T03:10:49;4.28;;;3.10;;
84311;SDS011;74490;52.148;7.940;2024-03-08T03:13:14;4.65;;;3.00;;
84311;SDS011;74490;52.148;7.940;2024-03-08T03:15:39;5.38;;;3.15;;
84311;SDS011;74490;52.148;7.940;2024-03-08T03:18:08;3.60;;;2.80;;
84311;SDS011;74490;52.148;7.940;2024-03-08T03:20:33;3.75;;;2.50;;
84311;SDS011;74490;52.148;7.940;2024-03-08T03:23:04;3.80;;;2.80;;
84311;SDS011;74490;52.148;7.940;2024-03-08T03:25:32;4.22;;;2.70;;
84311;SDS011;74490;52.148;7.940;2024-03-08T03:28:00;3.78;;;2.70;;
84311;SDS011;74490;52.148;7.940;2024-03-08T03:30:25;2.97;;;2.42;;
84311;SDS011;74490;52.148;7.940;2024-03-08T03:32:51;5.03;;;3.05;;
84311;SDS011;74490;52.148;7.940;2024-03-08T03:35:17;5.20;;;2.92;;
84311;SDS011;74490;52.148;7.940;2024-03-08T03:37:43;4.30;;;2.83;;
84311;SDS011;74490;52.148;7.940;2024-03-08T03:40:26;4.07;;;2.85;;
84311;SDS011;74490;52.148;7.940;2024-03-08T03:42:54;4.22;;;2.90;;
84311;SDS011;74490;52.148;7.940;2024-03-08T03:45:20;3.45;;;2.70;;
84311;SDS011;74490;52.148;7.940;2024-03-08T03:47:46;3.78;;;2.55;;
84311;SDS011;74490;52.148;7.940;2024-03-08T03:50:11;3.72;;;2.67;;
84311;SDS011;74490;52.148;7.940;2024-03-08T03:52:36;4.85;;;2.65;;
84311;SDS011;74490;52.148;7.940;2024-03-08T03:55:01;3.88;;;2.58;;
84311;SDS011;74490;52.148;7.940;2024-03-08T03:57:29;3.72;;;2.78;;
84311;SDS011;74490;52.148;7.940;2024-03-08T03:59:55;4.05;;;3.03;;
84311;SDS011;74490;52.148;7.940;2024-03-08T04:02:20;2.95;;;2.35;;
84311;SDS011;74490;52.148;7.940;2024-03-08T04:04:46;4.82;;;2.97;;
84311;SDS011;74490;52.148;7.940;2024-03-08T04:07:12;4.40;;;2.50;;
84311;SDS011;74490;52.148;7.940;2024-03-08T04:09:37;3.33;;;2.53;;
84311;SDS011;74490;52.148;7.940;2024-03-08T04:12:02;3.90;;;3.03;;
84311;SDS011;74490;52.148;7.940;2024-03-08T04:14:27;4.13;;;3.05;;
84311;SDS011;74490;52.148;7.940;2024-03-08T04:16:53;3.92;;;2.83;;
84311;SDS011;74490;52.148;7.940;2024-03-08T04:19:18;4.03;;;2.80;;
84311;SDS011;74490;52.148;7.940;2024-03-08T04:21:44;4.15;;;2.67;;
84311;SDS011;74490;52.148;7.940;2024-03-08T04:24:09;3.40;;;2.72;;
84311;SDS011;74490;52.148;7.940;2024-03-08T04:26:35;3.92;;;2.75;;
84311;SDS011;74490;52.148;7.940;2024-03-08T04:29:00;4.00;;;2.95;;
84311;SDS011;74490;52.148;7.940;2024-03-08T04:31:26;3.58;;;2.53;;
84311;SDS011;74490;52.148;7.940;2024-03-08T04:33:51;4.70;;;2.95;;
84311;SDS011;74490;52.148;7.940;2024-03-08T04:36:17;3.65;;;2.60;;
84311;SDS011;74490;52.148;7.940;2024-03-08T04:38:42;3.80;;;2.70;;
84311;SDS011;74490;52.148;7.940;2024-03-08T04:41:07;3.83;;;2.70;;
84311;SDS011;74490;52.148;7.940;2024-03-08T04:43:33;2.90;;;2.33;;
84311;SDS011;74490;52.148;7.940;2024-03-08T04:45:58;3.53;;;2.65;;
84311;SDS011;74490;52.148;7.940;2024-03-08T04:48:23;4.15;;;2.95;;
84311;SDS011;74490;52.148;7.940;2024-03-08T04:50:51;2.97;;;2.35;;
84311;SDS011;74490;52.148;7.940;2024-03-08T04:53:16;4.80;;;2.97;;
84311;SDS011;74490;52.148;7.940;2024-03-08T04:55:42;3.88;;;2.65;;
84311;SDS011;74490;52.148;7.940;2024-03-08T04:58:08;3.75;;;2.75;;
84311;SDS011;74490;52.148;7.940;2024-03-08T05:00:33;4.40;;;2.90;;
84311;SDS011;74490;52.148;7.940;2024-03-08T05:02:58;3.33;;;2.78;;
84311;SDS011;74490;52.148;7.940;2024-03-08T05:05:24;3.92;;;2.95;;
84311;SDS011;74490;52.148;7.940;2024-03-08T05:07:49;4.55;;;3.00;;
84311;SDS011;74490;52.148;7.940;2024-03-08T05:10:15;4.10;;;2.50;;
84311;SDS011;74490;52.148;7.940;2024-03-08T05:12:42;3.72;;;2.72;;
84311;SDS011;74490;52.148;7.940;2024-03-08T05:15:08;4.38;;;2.95;;
84311;SDS011;74490;52.148;7.940;2024-03-08T05:17:33;3.95;;;2.92;;
84311;SDS011;74490;52.148;7.940;2024-03-08T05:19:59;3.38;;;2.60;;
84311;SDS011;74490;52.148;7.940;2024-03-08T05:22:24;3.60;;;2.90;;
84311;SDS011;74490;52.148;7.940;2024-03-08T05:24:50;3.90;;;2.90;;
84311;SDS011;74490;52.148;7.940;2024-03-08T05:27:16;3.22;;;2.45;;
84311;SDS011;74490;52.148;7.940;2024-03-08T05:29:41;4.25;;;2.95;;
84311;SDS011;74490;52.148;7.940;2024-03-08T05:32:06;4.45;;;2.72;;
84311;SDS011;74490;52.148;7.940;2024-03-08T05:34:32;4.10;;;2.72;;
84311;SDS011;74490;52.148;7.940;2024-03-08T05:36:57;4.40;;;3.10;;
84311;SDS011;74490;52.148;7.940;2024-03-08T05:39:23;3.67;;;2.83;;
84311;SDS011;74490;52.148;7.940;2024-03-08T05:41:49;6.68;;;3.60;;
84311;SDS011;74490;52.148;7.940;2024-03-08T05:44:14;5.30;;;3.70;;
84311;SDS011;74490;52.148;7.940;2024-03-08T05:46:39;5.75;;;3.83;;
84311;SDS011;74490;52.148;7.940;2024-03-08T05:49:05;6.95;;;3.55;;
84311;SDS011;74490;52.148;7.940;2024-03-08T05:51:31;6.82;;;4.22;;
84311;SDS011;74490;52.148;7.940;2024-03-08T05:54:04;7.20;;;4.20;;
84311;SDS011;74490;52.148;7.940;2024-03-08T05:56:31;6.10;;;4.18;;
84311;SDS011;74490;52.148;7.940;2024-03-08T05:58:56;5.22;;;4.10;;
84311;SDS011;74490;52.148;7.940;2024-03-08T06:01:23;8.65;;;3.95;;
84311;SDS011;74490;52.148;7.940;2024-03-08T06:03:49;5.13;;;4.20;;
84311;SDS011;74490;52.148;7.940;2024-03-08T06:06:14;7.40;;;3.80;;
84311;SDS011;74490;52.148;7.940;2024-03-08T06:08:40;6.43;;;3.85;;
84311;SDS011;74490;52.148;7.940;2024-03-08T06:11:07;5.97;;;3.97;;
84311;SDS011;74490;52.148;7.940;2024-03-08T06:13:33;5.78;;;4.10;;
84311;SDS011;74490;52.148;7.940;2024-03-08T06:15:58;4.93;;;3.97;;
84311;SDS011;74490;52.148;7.940;2024-03-08T06:18:24;12.00;;;4.22;;
84311;SDS011;74490;52.148;7.940;2024-03-08T06:20:50;5.85;;;4.13;;
84311;SDS011;74490;52.148;7.940;2024-03-08T06:23:15;8.43;;;4.57;;
84311;SDS011;74490;52.148;7.940;2024-03-08T06:25:46;10.07;;;4.10;;
84311;SDS011;74490;52.148;7.940;2024-03-08T06:28:11;7.18;;;3.85;;
84311;SDS011;74490;52.148;7.940;2024-03-08T06:30:36;8.70;;;4.68;;
84311;SDS011;74490;52.148;7.940;2024-03-08T06:33:02;7.97;;;3.70;;
84311;SDS011;74490;52.148;7.940;2024-03-08T06:35:27;8.82;;;4.47;;
84311;SDS011;74490;52.148;7.940;2024-03-08T06:37:52;6.70;;;4.15;;
84311;SDS011;74490;52.148;7.940;2024-03-08T06:40:18;6.65;;;4.30;;
84311;SDS011;74490;52.148;7.940;2024-03-08T06:42:43;9.68;;;4.47;;
84311;SDS011;74490;52.148;7.940;2024-03-08T06:45:08;9.27;;;4.63;;
84311;SDS011;74490;52.148;7.940;2024-03-08T06:47:35;7.43;;;4.07;;
84311;SDS011;74490;52.148;7.940;2024-03-08T06:50:00;7.50;;;4.22;;
84311;SDS011;74490;52.148;7.940;2024-03-08T06:52:26;9.73;;;4.88;;
84311;SDS011;74490;52.148;7.940;2024-03-08T06:54:51;7.43;;;4.40;;
84311;SDS011;74490;52.148;7.940;2024-03-08T06:57:17;8.88;;;4.30;;
84311;SDS011;74490;52.148;7.940;2024-03-08T06:59:42;8.98;;;4.78;;
84311;SDS011;74490;52.148;7.940;2024-03-08T07:02:08;7.43;;;4.22;;
84311;SDS011;74490;52.148;7.940;2024-03-08T07:04:35;10.38;;;4.70;;
84311;SDS011;74490;52.148;7.940;2024-03-08T07:07:03;8.40;;;4.68;;
84311;SDS011;74490;52.148;7.940;2024-03-08T07:09:30;9.07;;;4.60;;
84311;SDS011;74490;52.148;7.940;2024-03-08T07:11:56;8.82;;;4.80;;
84311;SDS011;74490;52.148;7.940;2024-03-08T07:14:24;7.43;;;4.28;;
84311;SDS011;74490;52.148;7.940;2024-03-08T07:16:49;8.73;;;4.82;;
84311;SDS011;74490;52.148;7.940;2024-03-08T07:19:16;8.35;;;4.50;;
84311;SDS011;74490;52.148;7.940;2024-03-08T07:21:42;7.07;;;4.25;;
84311;SDS011;74490;52.148;7.940;2024-03-08T07:24:10;8.60;;;4.38;;
84311;SDS011;74490;52.148;7.940;2024-03-08T07:26:42;8.07;;;4.60;;
84311;SDS011;74490;52.148;7.940;2024-03-08T07:29:08;6.97;;;4.15;;
84311;SDS011;74490;52.148;7.940;2024-03-08T07:31:33;6.72;;;4.20;;
84311;SDS011;74490;52.148;7.940;2024-03-08T07:34:21;7.57;;;4.45;;
84311;SDS011;74490;52.148;7.940;2024-03-08T07:36:46;8.70;;;4.20;;
84311;SDS011;74490;52.148;7.940;2024-03-08T07:39:11;8.10;;;4.72;;
84311;SDS011;74490;52.148;7.940;2024-03-08T07:41:40;9.55;;;4.70;;
84311;SDS011;74490;52.148;7.940;2024-03-08T07:44:06;10.63;;;5.15;;
84311;SDS011;74490;52.148;7.940;2024-03-08T07:46:31;11.20;;;5.40;;
84311;SDS011;74490;52.148;7.940;2024-03-08T07:48:59;7.70;;;5.10;;
84311;SDS011;74490;52.148;7.940;2024-03-08T07:51:24;11.80;;;4.93;;
84311;SDS011;74490;52.148;7.940;2024-03-08T07:53:49;10.63;;;5.25;;
84311;SDS011;74490;52.148;7.940;2024-03-08T07:56:15;11.57;;;6.32;;
84311;SDS011;74490;52.148;7.940;2024-03-08T07:58:43;9.88;;;6.80;;
84311;SDS011;74490;52.148;7.940;2024-03-08T08:01:08;10.38;;;6.12;;
84311;SDS011;74490;52.148;7.940;2024-03-08T08:03:41;10.70;;;6.70;;
84311;SDS011;74490;52.148;7.940;2024-03-08T08:06:07;11.10;;;6.75;;
84311;SDS011;74490;52.148;7.940;2024-03-08T08:08:32;12.63;;;6.80;;
84311;SDS011;74490;52.148;7.940;2024-03-08T08:10:57;10.88;;;6.53;;
84311;SDS011;74490;52.148;7.940;2024-03-08T08:13:23;10.93;;;6.75;;
84311;SDS011;74490;52.148;7.940;2024-03-08T08:15:48;13.68;;;6.55;;
84311;SDS011;74490;52.148;7.940;2024-03-08T08:18:14;11.63;;;6.18;;
84311;SDS011;74490;52.148;7.940;2024-03-08T08:20:39;11.32;;;5.90;;
84311;SDS011;74490;52.148;7.940;2024-03-08T08:23:04;7.90;;;5.75;;
84311;SDS011;74490;52.148;7.940;2024-03-08T08:25:30;14.02;;;6.18;;
84311;SDS011;74490;52.148;7.940;2024-03-08T08:27:55;13.43;;;6.72;;
84311;SDS011;74490;52.148;7.940;2024-03-08T08:30:20;10.77;;;5.70;;
84311;SDS011;74490;52.148;7.940;2024-03-08T08:32:45;12.10;;;5.85;;
84311;SDS011;74490;52.148;7.940;2024-03-08T08:35:12;12.85;;;5.70;;
84311;SDS011;74490;52.148;7.940;2024-03-08T08:37:40;24.08;;;7.10;;
84311;SDS011;74490;52.148;7.940;2024-03-08T08:40:06;12.35;;;5.75;;
84311;SDS011;74490;52.148;7.940;2024-03-08T08:42:39;12.65;;;6.25;;
84311;SDS011;74490;52.148;7.940;2024-03-08T08:45:07;16.40;;;5.95;;
84311;SDS011;74490;52.148;7.940;2024-03-08T08:47:34;9.75;;;5.32;;
84311;SDS011;74490;52.148;7.940;2024-03-08T08:50:02;11.70;;;6.00;;
84311;SDS011;74490;52.148;7.940;2024-03-08T08:52:30;15.95;;;5.15;;
84311;SDS011;74490;52.148;7.940;2024-03-08T08:54:55;12.13;;;5.50;;
84311;SDS011;74490;52.148;7.940;2024-03-08T08:57:21;12.38;;;5.28;;
84311;SDS011;74490;52.148;7.940;2024-03-08T08:59:46;12.23;;;5.22;;
84311;SDS011;74490;52.148;7.940;2024-03-08T09:02:12;9.98;;;5.72;;
84311;SDS011;74490;52.148;7.940;2024-03-08T09:04:38;9.88;;;5.15;;
84311;SDS011;74490;52.148;7.940;2024-03-08T09:07:03;12.15;;;5.25;;
84311;SDS011;74490;52.148;7.940;2024-03-08T09:09:31;13.63;;;5.38;;
84311;SDS011;74490;52.148;7.940;2024-03-08T09:11:56;8.85;;;4.95;;
84311;SDS011;74490;52.148;7.940;2024-03-08T09:14:21;10.77;;;4.80;;
84311;SDS011;74490;52.148;7.940;2024-03-08T09:16:47;11.30;;;5.50;;
84311;SDS011;74490;52.148;7.940;2024-03-08T09:19:12;10.05;;;5.07;;
84311;SDS011;74490;52.148;7.940;2024-03-08T09:21:38;9.70;;;4.88;;
84311;SDS011;74490;52.148;7.940;2024-03-08T09:24:05;8.95;;;5.03;;
84311;SDS011;74490;52.148;7.940;2024-03-08T09:26:31;14.95;;;5.38;;
84311;SDS011;74490;52.148;7.940;2024-03-08T09:28:58;12.88;;;5.53;;
84311;SDS011;74490;52.148;7.940;2024-03-08T09:31:23;9.25;;;4.85;;
84311;SDS011;74490;52.148;7.940;2024-03-08T09:33:48;11.07;;;5.43;;
84311;SDS011;74490;52.148;7.940;2024-03-08T09:36:14;10.68;;;4.55;;
84311;SDS011;74490;52.148;7.940;2024-03-08T09:38:39;12.10;;;5.13;;
84311;SDS011;74490;52.148;7.940;2024-03-08T09:41:05;15.82;;;5.05;;
84311;SDS011;74490;52.148;7.940;2024-03-08T09:43:30;14.85;;;4.78;;
84311;SDS011;74490;52.148;7.940;2024-03-08T09:45:55;13.43;;;4.55;;
84311;SDS011;74490;52.148;7.940;2024-03-08T09:48:21;10.50;;;4.55;;
84311;SDS011;74490;52.148;7.940;2024-03-08T09:50:47;9.52;;;4.35;;
84311;SDS011;74490;52.148;7.940;2024-03-08T09:53:13;11.00;;;5.05;;
84311;SDS011;74490;52.148;7.940;2024-03-08T09:55:38;14.57;;;5.75;;
84311;SDS011;74490;52.148;7.940;2024-03-08T09:58:07;14.75;;;5.75;;
84311;SDS011;74490;52.148;7.940;2024-03-08T10:00:52;9.80;;;5.03;;
84311;SDS011;74490;52.148;7.940;2024-03-08T10:03:17;13.27;;;4.95;;
84311;SDS011;74490;52.148;7.940;2024-03-08T10:05:42;11.85;;;5.50;;
84311;SDS011;74490;52.148;7.940;2024-03-08T10:08:09;14.68;;;4.80;;
84311;SDS011;74490;52.148;7.940;2024-03-08T10:10:35;12.13;;;5.28;;
84311;SDS011;74490;52.148;7.940;2024-03-08T10:13:01;16.05;;;5.28;;
84311;SDS011;74490;52.148;7.940;2024-03-08T10:15:29;19.65;;;4.88;;
84311;SDS011;74490;52.148;7.940;2024-03-08T10:17:57;12.63;;;5.07;;
84311;SDS011;74490;52.148;7.940;2024-03-08T10:20:22;15.00;;;5.10;;
84311;SDS011;74490;52.148;7.940;2024-03-08T10:22:51;16.70;;;5.35;;
84311;SDS011;74490;52.148;7.940;2024-03-08T10:25:16;11.25;;;4.80;;
84311;SDS011;74490;52.148;7.940;2024-03-08T10:27:42;14.45;;;5.38;;
84311;SDS011;74490;52.148;7.940;2024-03-08T10:30:11;15.63;;;5.13;;
84311;SDS011;74490;52.148;7.940;2024-03-08T10:32:37;12.45;;;5.07;;
84311;SDS011;74490;52.148;7.940;2024-03-08T10:35:03;16.45;;;5.15;;
84311;SDS011;74490;52.148;7.940;2024-03-08T10:37:28;14.77;;;4.72;;
84311;SDS011;74490;52.148;7.940;2024-03-08T10:40:03;19.95;;;5.00;;
84311;SDS011;74490;52.148;7.940;2024-03-08T10:42:41;12.15;;;5.13;;
84311;SDS011;74490;52.148;7.940;2024-03-08T10:45:15;16.67;;;5.20;;
84311;SDS011;74490;52.148;7.940;2024-03-08T10:47:40;22.75;;;5.28;;
84311;SDS011;74490;52.148;7.940;2024-03-08T10:50:18;27.02;;;6.40;;
84311;SDS011;74490;52.148;7.940;2024-03-08T10:52:48;14.25;;;4.47;;
84311;SDS011;74490;52.148;7.940;2024-03-08T10:55:14;13.90;;;4.68;;
84311;SDS011;74490;52.148;7.940;2024-03-08T10:57:40;9.00;;;4.10;;
84311;SDS011;74490;52.148;7.940;2024-03-08T11:00:06;11.63;;;4.38;;
84311;SDS011;74490;52.148;7.940;2024-03-08T11:02:35;10.38;;;4.47;;
84311;SDS011;74490;52.148;7.940;2024-03-08T11:05:00;10.38;;;4.40;;
84311;SDS011;74490;52.148;7.940;2024-03-08T11:07:26;15.07;;;4.88;;
84311;SDS011;74490;52.148;7.940;2024-03-08T11:09:53;16.67;;;4.65;;
84311;SDS011;74490;52.148;7.940;2024-03-08T11:14:45;10.38;;;4.55;;
84311;SDS011;74490;52.148;7.940;2024-03-08T11:17:12;10.57;;;4.30;;
84311;SDS011;74490;52.148;7.940;2024-03-08T11:19:38;8.10;;;4.25;;
84311;SDS011;74490;52.148;7.940;2024-03-08T11:22:05;10.55;;;4.22;;
84311;SDS011;74490;52.148;7.940;2024-03-08T11:24:38;8.10;;;4.15;;
84311;SDS011;74490;52.148;7.940;2024-03-08T11:27:06;9.10;;;4.32;;
84311;SDS011;74490;52.148;7.940;2024-03-08T11:29:32;14.45;;;5.07;;
84311;SDS011;74490;52.148;7.940;2024-03-08T11:32:05;12.45;;;4.78;;
84311;SDS011;74490;52.148;7.940;2024-03-08T11:34:32;10.55;;;4.90;;
84311;SDS011;74490;52.148;7.940;2024-03-08T11:36:58;8.63;;;4.70;;
84311;SDS011;74490;52.148;7.940;2024-03-08T11:39:23;11.50;;;4.70;;
84311;SDS011;74490;52.148;7.940;2024-03-08T11:41:49;11.40;;;4.40;;
84311;SDS011;74490;52.148;7.940;2024-03-08T11:44:14;14.85;;;5.72;;
84311;SDS011;74490;52.148;7.940;2024-03-08T11:46:41;12.60;;;5.03;;
84311;SDS011;74490;52.148;7.940;2024-03-08T11:49:11;13.52;;;4.60;;
84311;SDS011;74490;52.148;7.940;2024-03-08T11:51:36;11.95;;;5.18;;
84311;SDS011;74490;52.148;7.940;2024-03-08T11:54:02;13.43;;;4.82;;
84311;SDS011;74490;52.148;7.940;2024-03-08T11:56:28;14.18;;;5.57;;
84311;SDS011;74490;52.148;7.940;2024-03-08T11:58:54;11.68;;;5.00;;
84311;SDS011;74490;52.148;7.940;2024-03-08T12:01:22;13.77;;;5.20;;
84311;SDS011;74490;52.148;7.940;2024-03-08T12:03:57;19.77;;;5.72;;
84311;SDS011;74490;52.148;7.940;2024-03-08T12:06:26;15.38;;;5.70;;
84311;SDS011;74490;52.148;7.940;2024-03-08T12:08:52;16.80;;;5.30;;
84311;SDS011;74490;52.148;7.940;2024-03-08T12:11:18;19.25;;;5.40;;
84311;SDS011;74490;52.148;7.940;2024-03-08T12:13:48;17.17;;;6.38;;
84311;SDS011;74490;52.148;7.940;2024-03-08T12:16:15;16.90;;;5.35;;
84311;SDS011;74490;52.148;7.940;2024-03-08T12:18:42;16.73;;;6.18;;
84311;SDS011;74490;52.148;7.940;2024-03-08T12:21:08;15.20;;;5.13;;
84311;SDS011;74490;52.148;7.940;2024-03-08T12:23:37;14.45;;;5.13;;
84311;SDS011;74490;52.148;7.940;2024-03-08T12:26:14;11.98;;;4.93;;
84311;SDS011;74490;52.148;7.940;2024-03-08T12:28:40;17.75;;;5.10;;
84311;SDS011;74490;52.148;7.940;2024-03-08T12:31:09;11.43;;;5.05;;
84311;SDS011;74490;52.148;7.940;2024-03-08T12:33:35;10.90;;;5.43;;
84311;SDS011;74490;52.148;7.940;2024-03-08T12:36:01;15.13;;;5.43;;
84311;SDS011;74490;52.148;7.940;2024-03-08T12:38:29;12.98;;;4.97;;
84311;SDS011;74490;52.148;7.940;2024-03-08T12:40:59;14.77;;;5.13;;
84311;SDS011;74490;52.148;7.940;2024-03-08T12:43:25;14.77;;;5.03;;
84311;SDS011;74490;52.148;7.940;2024-03-08T12:45:50;11.63;;;4.80;;
84311;SDS011;74490;52.148;7.940;2024-03-08T12:48:16;10.55;;;4.47;;
84311;SDS011;74490;52.148;7.940;2024-03-08T12:50:41;11.98;;;5.00;;
84311;SDS011;74490;52.148;7.940;2024-03-08T12:53:12;13.95;;;4.82;;
84311;SDS011;74490;52.148;7.940;2024-03-08T12:55:38;12.40;;;5.18;;
84311;SDS011;74490;52.148;7.940;2024-03-08T12:58:03;14.18;;;5.60;;
84311;SDS011;74490;52.148;7.940;2024-03-08T13:00:30;19.48;;;5.35;;
84311;SDS011;74490;52.148;7.940;2024-03-08T13:02:56;12.55;;;4.78;;
84311;SDS011;74490;52.148;7.940;2024-03-08T13:05:21;19.27;;;5.55;;
84311;SDS011;74490;52.148;7.940;2024-03-08T13:07:46;14.32;;;4.88;;
84311;SDS011;74490;52.148;7.940;2024-03-08T13:10:15;10.60;;;4.80;;
84311;SDS011;74490;52.148;7.940;2024-03-08T13:12:43;11.25;;;5.07;;
84311;SDS011;74490;52.148;7.940;2024-03-08T13:15:09;12.32;;;5.07;;
84311;SDS011;74490;52.148;7.940;2024-03-08T13:17:44;11.50;;;4.85;;
84311;SDS011;74490;52.148;7.940;2024-03-08T13:20:11;15.50;;;5.10;;
84311;SDS011;74490;52.148;7.940;2024-03-08T13:22:41;12.55;;;4.35;;
84311;SDS011;74490;52.148;7.940;2024-03-08T13:25:07;10.07;;;4.40;;
84311;SDS011;74490;52.148;7.940;2024-03-08T13:27:38;15.18;;;5.00;;
84311;SDS011;74490;52.148;7.940;2024-03-08T13:30:04;11.93;;;5.05;;
84311;SDS011;74490;52.148;7.940;2024-03-08T13:32:29;11.40;;;5.32;;
84311;SDS011;74490;52.148;7.940;2024-03-08T13:34:56;10.52;;;5.13;;
84311;SDS011;74490;52.148;7.940;2024-03-08T13:37:21;9.48;;;5.40;;
84311;SDS011;74490;52.148;7.940;2024-03-08T13:39:46;11.40;;;5.15;;
84311;SDS011;74490;52.148;7.940;2024-03-08T13:42:12;6.72;;;5.00;;
84311;SDS011;74490;52.148;7.940;2024-03-08T13:44:47;8.45;;;5.15;;
84311;SDS011;74490;52.148;7.940;2024-03-08T13:47:16;11.30;;;4.97;;
84311;SDS011;74490;52.148;7.940;2024-03-08T13:49:42;9.73;;;4.88;;
84311;SDS011;74490;52.148;7.940;2024-03-08T13:52:08;8.68;;;5.00;;
84311;SDS011;74490;52.148;7.940;2024-03-08T13:54:34;7.00;;;4.80;;
84311;SDS011;74490;52.148;7.940;2024-03-08T13:57:00;8.00;;;5.38;;
84311;SDS011;74490;52.148;7.940;2024-03-08T13:59:25;7.38;;;4.93;;
84311;SDS011;74490;52.148;7.940;2024-03-08T14:01:56;9.90;;;4.88;;
84311;SDS011;74490;52.148;7.940;2024-03-08T14:04:22;9.48;;;4.93;;
84311;SDS011;74490;52.148;7.940;2024-03-08T14:06:47;9.68;;;4.97;;
84311;SDS011;74490;52.148;7.940;2024-03-08T14:09:14;8.55;;;5.28;;
84311;SDS011;74490;52.148;7.940;2024-03-08T14:11:42;7.18;;;5.00;;
84311;SDS011;74490;52.148;7.940;2024-03-08T14:14:07;9.02;;;5.20;;
84311;SDS011;74490;52.148;7.940;2024-03-08T14:16:34;7.22;;;4.45;;
84311;SDS011;74490;52.148;7.940;2024-03-08T14:19:01;9.77;;;4.88;;
84311;SDS011;74490;52.148;7.940;2024-03-08T14:21:30;10.05;;;6.05;;
84311;SDS011;74490;52.148;7.940;2024-03-08T14:23:55;10.30;;;5.07;;
84311;SDS011;74490;52.148;7.940;2024-03-08T14:26:21;8.18;;;4.35;;
84311;SDS011;74490;52.148;7.940;2024-03-08T14:28:46;7.38;;;5.35;;
84311;SDS011;74490;52.148;7.940;2024-03-08T14:31:12;9.00;;;5.28;;
84311;SDS011;74490;52.148;7.940;2024-03-08T14:33:37;14.93;;;5.57;;
84311;SDS011;74490;52.148;7.940;2024-03-08T14:36:02;9.85;;;5.03;;
84311;SDS011;74490;52.148;7.940;2024-03-08T14:38:28;9.02;;;5.47;;
84311;SDS011;74490;52.148;7.940;2024-03-08T14:40:53;7.72;;;4.80;;